Portada
METAR-TAF:

METAR-TAF

Aeroports :

Selma, Alabama, Estats Units d'Amèrica

latitud: 32-20-38N, longitud: 086-59-16W, altitud: 51 m

Observació

L'informe es va fer fa 26 minuts, a les 11:15 UTC
Vent 7 kt del Nord-Oest
Temperatura 18°C
Humitat 94%
Pressió 1018 hPa
Visibilitat: 12.9 km
Núvols disperses a una alçada de 700 ft
Cel ennuvolat a una alçada de 1000 ft
Cel cobert a una alçada de 4100 ft

METAR: KSEM 261115Z AUTO 32007KT 8SM SCT007 BKN010 OVC041 18/17 A3006 RMK AO2

Hora: 05:41 (11:41 UTC)


TAF: manca

Observacions i pronòstics meteorològics de més de 4000 aeroports (METAR i TAF).

Les estacions disponibles són els punts grocs i vermells al mapa.

Posi el ratolí al punt desitjat per veure el nom de l'estació.

Feu clic per veure les observacions i els pronòstics meteorològics.

Per canviar el mapa: feu clic els botons verds amb una creu de color negre per apropar; al botó verd amb un guió per allunyar la imatge; o en les fletxes verdes per a mapes adjacents.


METAR-TAF: